createdAt,value
2018-02-01T00:00:13.854Z,0.99
2018-02-01T00:02:41.403Z,0.99
2018-02-01T00:05:08.983Z,0.97
2018-02-01T00:07:36.621Z,0.96
2018-02-01T00:10:04.147Z,0.93
2018-02-01T00:12:31.748Z,0.95
2018-02-01T00:14:59.344Z,1.03
2018-02-01T00:17:26.897Z,1.13
2018-02-01T00:19:54.422Z,1.13
2018-02-01T00:22:21.970Z,1.12
2018-02-01T00:24:49.517Z,1.13
2018-02-01T00:27:17.069Z,1.18
2018-02-01T00:29:44.637Z,1.23
2018-02-01T00:32:12.237Z,1.33
2018-02-01T00:34:39.758Z,1.37
2018-02-01T00:37:07.481Z,1.40
2018-02-01T00:39:35.024Z,1.50
2018-02-01T00:42:02.636Z,1.49
2018-02-01T00:44:30.215Z,1.42
2018-02-01T00:46:57.747Z,1.41
2018-02-01T00:49:25.276Z,1.42
2018-02-01T00:51:52.840Z,1.43
2018-02-01T00:54:20.379Z,1.47
2018-02-01T00:56:47.940Z,1.43
2018-02-01T00:59:15.538Z,1.44
2018-02-01T01:01:43.120Z,1.44
2018-02-01T01:04:10.710Z,1.38
2018-02-01T01:06:38.251Z,1.26
2018-02-01T01:09:06.198Z,1.00
2018-02-01T01:11:33.760Z,1.16
2018-02-01T01:14:01.345Z,1.17
2018-02-01T01:16:28.879Z,1.11
2018-02-01T01:18:56.464Z,1.09
2018-02-01T01:21:24.023Z,1.08
2018-02-01T01:23:51.597Z,1.15
2018-02-01T01:26:19.134Z,1.24
2018-02-01T01:28:46.685Z,1.26
2018-02-01T01:31:14.317Z,1.25
2018-02-01T01:33:41.876Z,1.25
2018-02-01T01:36:09.476Z,1.26
2018-02-01T01:38:37.240Z,1.26
2018-02-01T01:41:04.849Z,1.44
2018-02-01T01:43:32.443Z,1.44
2018-02-01T01:46:10.884Z,1.41
2018-02-01T01:48:38.471Z,1.33
2018-02-01T01:51:06.085Z,1.14
2018-02-01T01:53:33.664Z,1.02
2018-02-01T01:56:01.208Z,0.87
2018-02-01T01:58:28.864Z,0.82
2018-02-01T02:00:56.512Z,0.82
2018-02-01T02:03:24.134Z,0.77
2018-02-01T02:05:51.688Z,0.72
2018-02-01T02:08:19.349Z,0.80
2018-02-01T02:10:46.919Z,0.85
2018-02-01T02:13:14.943Z,0.79
2018-02-01T02:15:42.515Z,0.79
2018-02-01T02:18:10.106Z,0.94
2018-02-01T02:20:37.694Z,0.83
2018-02-01T02:23:05.368Z,0.85
2018-02-01T02:25:32.915Z,0.83
2018-02-01T02:28:00.697Z,0.89
2018-02-01T02:30:28.242Z,0.91
2018-02-01T02:32:55.780Z,0.95
2018-02-01T02:35:25.252Z,1.10
2018-02-01T02:37:52.848Z,1.07
2018-02-01T02:40:20.473Z,1.10
2018-02-01T02:42:48.041Z,1.12
2018-02-01T02:45:15.599Z,0.97
2018-02-01T02:47:43.254Z,1.00
2018-02-01T02:50:11.235Z,0.91
2018-02-01T02:52:39.221Z,0.88
2018-02-01T02:55:07.293Z,0.84
2018-02-01T02:57:34.849Z,0.82
2018-02-01T03:00:02.456Z,0.85
2018-02-01T03:02:30.127Z,0.77
2018-02-01T03:04:57.688Z,0.63
2018-02-01T03:07:25.284Z,0.51
2018-02-01T03:09:52.819Z,0.50
2018-02-01T03:12:20.451Z,0.56
2018-02-01T03:14:47.999Z,0.54
2018-02-01T03:17:15.661Z,0.50
2018-02-01T03:19:43.267Z,0.52
2018-02-01T03:22:10.808Z,0.51
2018-02-01T03:24:38.364Z,0.54
2018-02-01T03:27:07.681Z,0.38
2018-02-01T03:29:35.222Z,0.51
2018-02-01T03:32:10.563Z,0.51
2018-02-01T03:34:38.143Z,0.47
2018-02-01T03:37:05.681Z,0.42
2018-02-01T03:39:33.250Z,0.42
2018-02-01T03:42:02.015Z,0.38
2018-02-01T03:44:29.988Z,0.40
2018-02-01T03:46:57.850Z,0.41
2018-02-01T03:49:25.409Z,0.45
2018-02-01T03:51:52.951Z,0.31
2018-02-01T03:54:20.565Z,0.24
2018-02-01T03:56:48.547Z,0.20
2018-02-01T03:59:16.167Z,0.15
2018-02-01T04:01:43.752Z,0.14
2018-02-01T04:04:11.604Z,0.14
2018-02-01T04:06:39.141Z,0.13
2018-02-01T04:09:06.769Z,0.09
2018-02-01T04:11:34.302Z,0.29
2018-02-01T04:14:01.857Z,0.27
2018-02-01T04:16:29.416Z,0.30
2018-02-01T04:18:56.988Z,0.32
2018-02-01T04:21:24.843Z,0.38
2018-02-01T04:23:52.415Z,0.41
2018-02-01T04:26:19.940Z,0.50
2018-02-01T04:28:47.480Z,0.58
2018-02-01T04:31:15.083Z,0.63
2018-02-01T04:33:42.621Z,0.68
2018-02-01T04:36:10.200Z,0.73
2018-02-01T04:38:37.775Z,0.76
2018-02-01T04:41:05.563Z,0.85
2018-02-01T04:43:33.135Z,0.82
2018-02-01T04:46:00.721Z,0.92
2018-02-01T04:48:28.262Z,0.91
2018-02-01T04:50:56.015Z,1.02
2018-02-01T04:53:23.588Z,1.03
2018-02-01T04:55:51.152Z,1.02
2018-02-01T04:58:18.680Z,1.11
2018-02-01T05:00:46.290Z,1.12
2018-02-01T05:03:13.833Z,1.13
2018-02-01T05:05:41.539Z,1.18
2018-02-01T05:08:09.189Z,1.16
2018-02-01T05:10:36.748Z,1.17
2018-02-01T05:13:04.320Z,1.18
2018-02-01T05:15:31.963Z,1.27
2018-02-01T05:17:59.498Z,1.32
2018-02-01T05:20:27.227Z,1.25
2018-02-01T05:22:54.806Z,1.36
2018-02-01T05:25:22.360Z,1.46
2018-02-01T05:27:49.923Z,1.45
2018-02-01T05:30:17.476Z,1.57
2018-02-01T05:32:45.008Z,1.60
2018-02-01T05:35:12.604Z,1.67
2018-02-01T05:37:40.164Z,1.71
2018-02-01T05:40:07.727Z,1.71
2018-02-01T05:42:35.337Z,1.71
2018-02-01T05:45:03.189Z,1.75
2018-02-01T05:47:31.025Z,1.86
2018-02-01T05:49:58.620Z,1.90
2018-02-01T05:52:26.147Z,1.82
2018-02-01T05:54:53.705Z,1.92
2018-02-01T05:57:21.299Z,1.92
2018-02-01T05:59:48.872Z,1.83
2018-02-01T06:02:16.406Z,1.80
2018-02-01T06:04:43.968Z,1.80
2018-02-01T06:07:11.586Z,1.83
2018-02-01T06:09:39.154Z,1.85
2018-02-01T06:12:06.717Z,1.95
2018-02-01T06:14:34.287Z,2.00
2018-02-01T06:17:01.828Z,2.07
2018-02-01T06:19:29.759Z,2.07
2018-02-01T06:21:57.291Z,2.05
2018-02-01T06:24:24.839Z,1.95
2018-02-01T06:26:52.412Z,2.01
2018-02-01T06:29:19.982Z,2.07
2018-02-01T06:31:47.539Z,1.95
2018-02-01T06:34:15.136Z,1.77
2018-02-01T06:36:42.692Z,1.80
2018-02-01T06:39:10.385Z,1.89
2018-02-01T06:41:37.965Z,1.93
2018-02-01T06:44:05.499Z,1.99
2018-02-01T06:46:33.049Z,2.06
2018-02-01T06:49:00.612Z,2.13
2018-02-01T06:51:28.227Z,2.19
2018-02-01T06:53:55.784Z,2.12
2018-02-01T06:56:23.776Z,2.02
2018-02-01T06:58:51.342Z,1.93
2018-02-01T07:01:25.032Z,2.04
2018-02-01T07:03:52.786Z,2.22
2018-02-01T07:06:20.312Z,2.17
2018-02-01T07:08:48.852Z,2.18
2018-02-01T07:11:16.495Z,2.25
2018-02-01T07:13:44.449Z,2.05
2018-02-01T07:16:12.028Z,2.12
2018-02-01T07:18:39.693Z,2.12
2018-02-01T07:21:07.243Z,2.24
2018-02-01T07:23:34.786Z,2.05
2018-02-01T07:26:02.391Z,2.14
2018-02-01T07:28:29.924Z,2.14
2018-02-01T07:30:57.462Z,2.07
2018-02-01T07:33:25.036Z,2.27
2018-02-01T07:35:52.586Z,2.36
2018-02-01T07:38:20.127Z,2.36
2018-02-01T07:40:47.761Z,2.52
2018-02-01T07:43:15.347Z,2.60
2018-02-01T07:45:46.410Z,2.62
2018-02-01T07:48:13.998Z,2.61
2018-02-01T07:50:41.617Z,2.74
2018-02-01T07:53:10.190Z,3.11
2018-02-01T07:55:37.743Z,3.15
2018-02-01T07:58:05.284Z,3.20
2018-02-01T08:00:35.072Z,3.23
2018-02-01T08:03:02.687Z,3.41
2018-02-01T08:05:30.221Z,3.43
2018-02-01T08:07:57.772Z,3.67
2018-02-01T08:10:25.332Z,3.66
2018-02-01T08:12:52.896Z,3.88
2018-02-01T08:15:20.446Z,3.93
2018-02-01T08:17:48.035Z,4.03
2018-02-01T08:20:15.571Z,4.12
2018-02-01T08:22:43.138Z,4.05
2018-02-01T08:25:10.827Z,4.14
2018-02-01T08:27:38.377Z,4.17
2018-02-01T08:30:05.946Z,4.30
2018-02-01T08:32:33.511Z,4.44
2018-02-01T08:35:01.077Z,4.50
2018-02-01T08:37:28.632Z,4.71
2018-02-01T08:39:56.226Z,4.81
2018-02-01T08:42:24.243Z,4.62
2018-02-01T08:44:51.792Z,4.65
2018-02-01T08:47:19.378Z,4.62
2018-02-01T08:49:46.922Z,4.74
2018-02-01T08:52:14.491Z,4.88
2018-02-01T08:54:42.062Z,4.98
2018-02-01T08:57:09.690Z,5.25
2018-02-01T08:59:37.236Z,5.62
2018-02-01T09:02:04.768Z,5.96
2018-02-01T09:04:32.294Z,6.26
2018-02-01T09:07:05.121Z,6.49
2018-02-01T09:09:32.714Z,6.74
2018-02-01T09:12:00.262Z,6.91
2018-02-01T09:14:27.812Z,6.93
2018-02-01T09:16:55.353Z,6.88
2018-02-01T09:19:22.912Z,6.89
2018-02-01T09:21:50.450Z,6.95
2018-02-01T09:24:18.006Z,6.97
2018-02-01T09:26:45.576Z,7.08
2018-02-01T09:29:13.148Z,7.03
2018-02-01T09:31:40.676Z,6.92
2018-02-01T09:34:08.290Z,7.04
2018-02-01T09:36:35.883Z,7.29
2018-02-01T09:39:03.453Z,7.24
2018-02-01T09:41:31.170Z,7.21
2018-02-01T09:43:58.711Z,7.27
2018-02-01T09:46:26.236Z,7.20
2018-02-01T09:48:53.793Z,7.30
2018-02-01T09:51:21.491Z,7.37
2018-02-01T09:53:49.083Z,7.53
2018-02-01T09:56:16.700Z,7.59
2018-02-01T09:58:44.253Z,7.82
2018-02-01T10:01:11.816Z,8.03
2018-02-01T10:03:39.385Z,8.18
2018-02-01T10:06:06.936Z,8.18
2018-02-01T10:08:34.479Z,8.08
2018-02-01T10:11:02.004Z,7.98
2018-02-01T10:13:29.548Z,7.96
2018-02-01T10:15:57.073Z,8.05
2018-02-01T10:18:25.505Z,8.21
2018-02-01T10:20:53.083Z,8.22
2018-02-01T10:23:20.636Z,7.87
2018-02-01T10:25:48.168Z,8.05
2018-02-01T10:28:15.834Z,8.14
2018-02-01T10:30:43.397Z,7.90
2018-02-01T10:33:11.488Z,7.93
2018-02-01T10:35:39.106Z,7.97
2018-02-01T10:38:06.657Z,7.93
2018-02-01T10:40:34.725Z,7.80
2018-02-01T10:43:02.279Z,7.83
2018-02-01T10:45:29.832Z,7.78
2018-02-01T10:47:57.428Z,7.92
2018-02-01T10:50:25.039Z,8.06
2018-02-01T10:52:52.599Z,8.17
2018-02-01T10:55:20.156Z,8.17
2018-02-01T10:57:47.690Z,8.44
2018-02-01T11:00:15.240Z,8.85
2018-02-01T11:02:42.835Z,8.82
2018-02-01T11:05:10.377Z,8.86
2018-02-01T11:07:37.924Z,9.03
2018-02-01T11:10:05.489Z,9.16
2018-02-01T11:12:33.016Z,9.07
2018-02-01T11:15:01.233Z,9.04
2018-02-01T11:17:28.878Z,9.22
2018-02-01T11:19:56.423Z,9.33
2018-02-01T11:22:24.517Z,9.34
2018-02-01T11:24:52.455Z,9.41
2018-02-01T11:27:20.075Z,9.69
2018-02-01T11:29:47.687Z,9.58
2018-02-01T11:32:15.244Z,9.54
2018-02-01T11:34:42.771Z,9.58
2018-02-01T11:37:10.494Z,9.48
2018-02-01T11:39:38.214Z,9.80
2018-02-01T11:42:05.864Z,9.90
2018-02-01T11:44:33.399Z,9.68
2018-02-01T11:47:00.955Z,9.86
2018-02-01T11:49:28.511Z,10.23
2018-02-01T11:51:56.090Z,10.21
2018-02-01T11:54:23.666Z,10.09
2018-02-01T11:56:51.248Z,10.04
2018-02-01T11:59:24.475Z,9.70
2018-02-01T12:01:52.061Z,9.60
2018-02-01T12:04:19.640Z,9.68
2018-02-01T12:06:47.249Z,9.35
2018-02-01T12:09:14.865Z,9.04
2018-02-01T12:11:42.427Z,9.14
2018-02-01T12:14:10.097Z,9.21
2018-02-01T12:16:37.671Z,9.23
2018-02-01T12:19:05.615Z,9.25
2018-02-01T12:21:33.232Z,9.27
2018-02-01T12:24:00.841Z,9.19
2018-02-01T12:26:28.415Z,9.09
2018-02-01T12:28:56.041Z,9.19
2018-02-01T12:31:24.285Z,9.31
2018-02-01T12:33:52.041Z,9.48
2018-02-01T12:36:19.637Z,9.67
2018-02-01T12:38:47.232Z,9.82
2018-02-01T12:41:14.780Z,9.52
2018-02-01T12:43:42.353Z,9.36
2018-02-01T12:46:09.941Z,9.32
2018-02-01T12:48:37.547Z,9.09
2018-02-01T12:51:05.180Z,9.19
2018-02-01T12:53:33.162Z,9.11
2018-02-01T12:56:00.732Z,9.13
2018-02-01T12:58:28.343Z,9.17
2018-02-01T13:00:55.902Z,9.11
2018-02-01T13:03:23.747Z,9.13
2018-02-01T13:05:51.319Z,8.88
2018-02-01T13:08:18.868Z,8.84
2018-02-01T13:10:46.419Z,8.77
2018-02-01T13:13:13.994Z,8.81
2018-02-01T13:15:41.593Z,8.82
2018-02-01T13:18:09.192Z,8.85
2018-02-01T13:20:36.819Z,8.74
2018-02-01T13:23:04.575Z,8.52
2018-02-01T13:25:32.829Z,8.53
2018-02-01T13:28:00.633Z,8.52
2018-02-01T13:30:28.223Z,8.41
2018-02-01T13:32:55.785Z,8.26
2018-02-01T13:35:23.404Z,8.21
2018-02-01T13:37:50.992Z,8.09
2018-02-01T13:40:18.563Z,7.91
2018-02-01T13:42:46.164Z,7.74
2018-02-01T13:45:13.716Z,7.55
2018-02-01T13:47:41.266Z,7.43
2018-02-01T13:50:08.872Z,7.16
2018-02-01T13:52:36.429Z,7.01
2018-02-01T13:55:04.023Z,6.80
2018-02-01T13:57:31.641Z,6.71
2018-02-01T13:59:59.209Z,6.55
2018-02-01T14:02:26.749Z,6.42
2018-02-01T14:04:54.305Z,6.20
2018-02-01T14:07:22.694Z,6.05
2018-02-01T14:09:50.276Z,5.98
2018-02-01T14:12:17.868Z,5.92
2018-02-01T14:14:45.556Z,5.77
2018-02-01T14:17:13.250Z,5.62
2018-02-01T14:19:40.829Z,5.50
2018-02-01T14:22:08.588Z,5.38
2018-02-01T14:24:36.193Z,5.27
2018-02-01T14:27:04.176Z,5.21
2018-02-01T14:29:31.886Z,5.19
2018-02-01T14:31:59.478Z,5.09
2018-02-01T14:34:27.139Z,5.04
2018-02-01T14:36:54.686Z,5.07
2018-02-01T14:39:24.636Z,5.01
2018-02-01T14:41:52.264Z,5.05
2018-02-01T14:44:19.857Z,4.93
2018-02-01T14:46:47.445Z,4.92
2018-02-01T14:49:14.994Z,4.83
2018-02-01T14:51:42.575Z,4.73
2018-02-01T14:54:10.649Z,4.68
2018-02-01T14:56:38.228Z,4.63
2018-02-01T14:59:05.807Z,4.53
2018-02-01T15:04:23.229Z,4.48
2018-02-01T15:06:50.812Z,4.48
2018-02-01T15:09:21.354Z,4.41
2018-02-01T15:11:49.041Z,4.34
2018-02-01T15:14:16.614Z,4.29
2018-02-01T15:16:44.222Z,4.20
2018-02-01T15:19:15.570Z,4.16
2018-02-01T15:21:43.230Z,4.09
2018-02-01T15:24:10.799Z,4.06
2018-02-01T15:26:38.418Z,4.08
2018-02-01T15:29:06.413Z,4.07
2018-02-01T15:31:42.514Z,4.04
2018-02-01T15:34:13.181Z,4.10
2018-02-01T15:36:40.791Z,4.07
2018-02-01T15:39:09.846Z,4.04
2018-02-01T15:41:37.627Z,3.99
2018-02-01T15:44:05.191Z,3.96
2018-02-01T15:46:32.762Z,3.93
2018-02-01T15:49:00.320Z,3.93
2018-02-01T15:51:28.279Z,3.95
2018-02-01T15:53:55.838Z,3.93
2018-02-01T15:56:23.423Z,3.92
2018-02-01T15:58:51.031Z,3.89
2018-02-01T16:01:18.674Z,3.92
2018-02-01T16:03:46.280Z,3.87
2018-02-01T16:06:14.105Z,3.88
2018-02-01T16:08:41.693Z,3.78
2018-02-01T16:11:10.930Z,3.79
2018-02-01T16:13:38.545Z,3.75
2018-02-01T16:16:06.178Z,3.70
2018-02-01T16:18:33.737Z,3.64
2018-02-01T16:21:01.327Z,3.51
2018-02-01T16:23:28.945Z,3.43
2018-02-01T16:25:56.571Z,3.44
2018-02-01T16:28:24.929Z,3.38
2018-02-01T16:30:52.555Z,3.34
2018-02-01T16:33:20.524Z,3.33
2018-02-01T16:35:48.131Z,3.29
2018-02-01T16:38:16.814Z,3.26
2018-02-01T16:40:44.406Z,3.22
2018-02-01T16:43:12.571Z,3.22
2018-02-01T16:45:40.184Z,3.20
2018-02-01T16:48:07.761Z,3.20
2018-02-01T16:50:36.124Z,3.19
2018-02-01T16:53:03.780Z,3.28
2018-02-01T16:55:31.842Z,3.25
2018-02-01T16:57:59.644Z,3.21
2018-02-01T17:03:17.500Z,3.23
2018-02-01T17:05:45.062Z,3.28
2018-02-01T17:08:12.761Z,3.31
2018-02-01T17:10:40.356Z,3.28
2018-02-01T17:13:08.140Z,3.29
2018-02-01T17:15:35.812Z,3.28
2018-02-01T17:18:03.789Z,3.30
2018-02-01T17:20:31.816Z,3.33
2018-02-01T17:22:59.418Z,3.29
2018-02-01T17:25:27.164Z,3.31
2018-02-01T17:27:54.887Z,3.36
2018-02-01T17:30:22.458Z,3.36
2018-02-01T17:32:50.001Z,3.33
2018-02-01T17:35:17.607Z,3.38
2018-02-01T17:37:45.223Z,3.32
2018-02-01T17:40:13.190Z,3.26
2018-02-01T17:42:40.770Z,3.16
2018-02-01T17:45:08.597Z,3.02
2018-02-01T17:47:37.613Z,3.03
2018-02-01T17:50:05.250Z,2.98
2018-02-01T17:52:32.918Z,2.95
2018-02-01T17:55:00.481Z,2.92
2018-02-01T17:57:28.070Z,2.92
2018-02-01T17:59:55.762Z,2.92
2018-02-01T18:02:23.354Z,2.93
2018-02-01T18:04:50.923Z,2.88
2018-02-01T18:07:18.697Z,2.90
2018-02-01T18:09:46.270Z,2.87
2018-02-01T18:12:14.044Z,2.83
2018-02-01T18:14:41.674Z,2.80
2018-02-01T18:17:09.852Z,2.82
2018-02-01T18:19:37.682Z,2.77
2018-02-01T18:22:05.327Z,2.78
2018-02-01T18:24:32.934Z,2.77
2018-02-01T18:27:00.505Z,2.75
2018-02-01T18:29:29.339Z,2.79
2018-02-01T18:31:57.015Z,2.81
2018-02-01T18:34:24.593Z,2.82
2018-02-01T18:36:52.188Z,2.77
2018-02-01T18:39:20.895Z,2.78
2018-02-01T18:41:48.592Z,2.78
2018-02-01T18:44:16.293Z,2.81
2018-02-01T18:46:43.883Z,2.82
2018-02-01T18:49:11.792Z,2.88
2018-02-01T18:51:39.360Z,2.84
2018-02-01T18:54:07.045Z,2.80
2018-02-01T18:56:34.641Z,2.80
2018-02-01T18:59:02.281Z,2.79
2018-02-01T19:01:31.995Z,2.78
2018-02-01T19:03:59.702Z,2.77
2018-02-01T19:06:27.442Z,2.79
2018-02-01T19:08:55.118Z,2.73
2018-02-01T19:11:24.366Z,2.72
2018-02-01T19:13:52.107Z,2.80
2018-02-01T19:16:19.679Z,2.77
2018-02-01T19:18:47.313Z,2.64
2018-02-01T19:21:16.747Z,2.64
2018-02-01T19:26:34.832Z,2.63
2018-02-01T19:29:03.820Z,2.62
2018-02-01T19:31:32.301Z,2.67
2018-02-01T19:33:59.874Z,2.65
2018-02-01T19:36:27.463Z,2.63
2018-02-01T19:38:55.090Z,2.59
2018-02-01T19:41:25.201Z,2.58
2018-02-01T19:43:52.747Z,2.66
2018-02-01T19:46:21.531Z,2.66
2018-02-01T19:48:49.219Z,2.66
2018-02-01T19:51:17.883Z,2.63
2018-02-01T19:53:45.456Z,2.60
2018-02-01T19:56:17.402Z,2.59
2018-02-01T19:58:51.707Z,2.60
2018-02-01T20:01:20.550Z,2.59
2018-02-01T20:03:48.170Z,2.59
2018-02-01T20:06:15.769Z,2.57
2018-02-01T20:08:43.351Z,2.50
2018-02-01T20:11:11.867Z,2.50
2018-02-01T20:13:39.849Z,2.50
2018-02-01T20:16:07.429Z,2.50
2018-02-01T20:18:34.984Z,2.52
2018-02-01T20:21:02.573Z,2.54
2018-02-01T20:23:30.379Z,2.45
2018-02-01T20:25:58.006Z,2.44
2018-02-01T20:28:25.589Z,2.38
2018-02-01T20:30:53.169Z,2.37
2018-02-01T20:33:21.727Z,2.37
2018-02-01T20:35:49.324Z,2.36
2018-02-01T20:38:16.954Z,2.36
2018-02-01T20:40:44.544Z,2.41
2018-02-01T20:43:12.618Z,2.36
2018-02-01T20:45:40.202Z,2.33
2018-02-01T20:48:07.768Z,2.31
2018-02-01T20:50:35.511Z,2.30
2018-02-01T20:53:03.166Z,2.28
2018-02-01T20:55:31.828Z,2.24
2018-02-01T20:57:59.419Z,2.21
2018-02-01T21:00:27.957Z,2.22
2018-02-01T21:02:55.592Z,2.24
2018-02-01T21:05:23.225Z,2.23
2018-02-01T21:07:50.777Z,2.18
2018-02-01T21:10:18.744Z,2.19
2018-02-01T21:12:46.396Z,2.18
2018-02-01T21:15:14.142Z,2.18
2018-02-01T21:17:41.724Z,2.14
2018-02-01T21:20:09.302Z,2.16
2018-02-01T21:22:36.888Z,2.19
2018-02-01T21:25:04.476Z,2.15
2018-02-01T21:33:14.048Z,2.11
2018-02-01T21:35:41.654Z,2.10
2018-02-01T21:38:11.149Z,2.08
2018-02-01T21:40:38.799Z,2.04
2018-02-01T21:45:57.488Z,2.05
2018-02-01T21:48:26.270Z,2.00
2018-02-01T21:50:53.870Z,1.98
2018-02-01T21:53:21.608Z,2.00
2018-02-01T21:55:49.197Z,2.01
2018-02-01T21:58:16.759Z,2.09
2018-02-01T22:00:44.355Z,2.06
2018-02-01T22:03:12.407Z,2.01
2018-02-01T22:05:40.112Z,2.01
2018-02-01T22:08:07.760Z,2.01
2018-02-01T22:10:35.380Z,2.04
2018-02-01T22:13:02.974Z,2.04
2018-02-01T22:15:30.554Z,2.05
2018-02-01T22:17:58.127Z,2.14
2018-02-01T22:20:25.788Z,2.19
2018-02-01T22:22:53.418Z,2.20
2018-02-01T22:25:21.017Z,2.24
2018-02-01T22:27:48.682Z,2.19
2018-02-01T22:30:16.259Z,2.15
2018-02-01T22:32:43.844Z,2.10
2018-02-01T22:35:12.536Z,2.16
2018-02-01T22:37:40.104Z,2.18
2018-02-01T22:40:07.743Z,2.18
2018-02-01T22:42:35.400Z,2.14
2018-02-01T22:45:03.196Z,2.13
2018-02-01T22:47:31.069Z,2.17
2018-02-01T22:49:58.758Z,2.21
2018-02-01T22:52:26.299Z,2.15
2018-02-01T22:54:53.852Z,2.20
2018-02-01T22:57:21.763Z,2.21
2018-02-01T22:59:49.404Z,2.22
2018-02-01T23:02:16.952Z,2.23
2018-02-01T23:04:46.012Z,2.24
2018-02-01T23:07:14.014Z,2.24
2018-02-01T23:09:41.585Z,2.26
2018-02-01T23:12:11.102Z,2.25
2018-02-01T23:14:38.712Z,2.24
2018-02-01T23:17:07.918Z,2.19
2018-02-01T23:19:35.878Z,2.21
2018-02-01T23:22:03.457Z,2.23
2018-02-01T23:24:31.009Z,2.23
2018-02-01T23:27:06.397Z,2.20
2018-02-01T23:29:34.117Z,2.20
2018-02-01T23:32:01.693Z,2.22
2018-02-01T23:34:29.287Z,2.22
2018-02-01T23:36:56.902Z,2.22
2018-02-01T23:39:24.445Z,2.17
2018-02-01T23:41:52.017Z,2.16
2018-02-01T23:44:19.590Z,2.15
2018-02-01T23:46:47.189Z,2.16
2018-02-01T23:49:15.813Z,2.15
2018-02-01T23:51:47.455Z,2.13
2018-02-01T23:54:15.049Z,2.10
2018-02-01T23:56:42.690Z,2.11
2018-02-01T23:59:10.254Z,2.10
